createdAt,value
2023-02-01T00:04:34.115Z,81.90
2023-02-01T00:09:36.464Z,81.94
2023-02-01T00:14:40.700Z,82.00
2023-02-01T00:19:43.880Z,81.99
2023-02-01T00:24:46.273Z,82.18
2023-02-01T00:29:49.077Z,82.35
2023-02-01T00:34:51.455Z,82.22
2023-02-01T00:39:56.913Z,82.35
2023-02-01T00:44:59.204Z,82.27
2023-02-01T00:50:01.466Z,82.19
2023-02-01T00:55:05.896Z,82.66
2023-02-01T01:00:08.931Z,82.62
2023-02-01T01:05:11.990Z,82.49
2023-02-01T01:10:14.263Z,82.48
2023-02-01T01:15:16.672Z,82.47
2023-02-01T01:20:19.610Z,82.78
2023-02-01T01:25:22.464Z,82.37
2023-02-01T01:30:25.122Z,82.80
2023-02-01T01:35:27.458Z,82.75
2023-02-01T01:40:31.572Z,82.79
2023-02-01T01:45:36.924Z,82.76
2023-02-01T01:50:42.727Z,82.71
2023-02-01T01:55:45.929Z,82.67
2023-02-01T02:00:49.138Z,82.90
2023-02-01T02:05:52.517Z,82.59
2023-02-01T02:11:01.068Z,82.81
2023-02-01T02:16:40.865Z,83.14
2023-02-01T02:22:12.039Z,83.19
2023-02-01T02:28:06.808Z,83.31
2023-02-01T02:33:34.163Z,83.26
2023-02-01T02:38:51.119Z,83.34
2023-02-01T02:49:41.805Z,83.13
2023-02-01T02:54:47.797Z,82.65
2023-02-01T03:00:10.297Z,82.91
2023-02-01T03:05:13.048Z,82.82
2023-02-01T03:10:24.665Z,83.04
2023-02-01T03:15:36.348Z,83.12
2023-02-01T03:20:40.886Z,82.67
2023-02-01T03:25:43.529Z,82.66
2023-02-01T03:30:45.943Z,82.70
2023-02-01T03:36:11.196Z,82.91
2023-02-01T03:41:25.177Z,82.83
2023-02-01T03:46:34.729Z,82.13
2023-02-01T03:51:40.344Z,82.47
2023-02-01T03:56:47.772Z,82.64
2023-02-01T04:01:50.459Z,82.14
2023-02-01T04:06:53.059Z,82.35
2023-02-01T04:11:56.324Z,82.37
2023-02-01T04:16:58.617Z,81.88
2023-02-01T04:22:00.961Z,81.92
2023-02-01T04:27:03.957Z,81.96
2023-02-01T04:32:06.397Z,81.95
2023-02-01T04:37:08.911Z,82.08
2023-02-01T04:42:11.289Z,81.90
2023-02-01T04:47:13.757Z,81.70
2023-02-01T04:52:16.055Z,81.95
2023-02-01T04:57:18.439Z,82.14
2023-02-01T05:02:20.721Z,82.15
2023-02-01T05:07:23.096Z,82.10
2023-02-01T05:12:43.774Z,82.22
2023-02-01T05:17:46.128Z,82.26
2023-02-01T05:22:48.450Z,81.95
2023-02-01T05:27:50.783Z,82.23
2023-02-01T05:32:54.382Z,82.31
2023-02-01T05:37:56.956Z,82.16
2023-02-01T05:42:59.188Z,82.11
2023-02-01T05:48:01.533Z,82.20
2023-02-01T05:53:03.778Z,82.28
2023-02-01T05:58:06.684Z,82.21
2023-02-01T06:03:09.315Z,82.44
2023-02-01T06:08:11.635Z,82.22
2023-02-01T06:13:13.909Z,82.69
2023-02-01T06:18:16.958Z,82.16
2023-02-01T06:23:19.241Z,82.61
2023-02-01T06:28:21.494Z,82.39
2023-02-01T06:33:23.797Z,82.74
2023-02-01T06:38:28.155Z,82.49
2023-02-01T06:43:30.798Z,82.80
2023-02-01T06:48:33.569Z,82.73
2023-02-01T06:53:35.823Z,82.68
2023-02-01T06:58:40.167Z,82.53
2023-02-01T07:03:42.728Z,82.54
2023-02-01T07:08:45.255Z,82.54
2023-02-01T07:13:47.564Z,82.68
2023-02-01T07:18:51.715Z,82.85
2023-02-01T07:23:53.995Z,82.80
2023-02-01T07:28:56.300Z,82.81
2023-02-01T07:33:59.568Z,82.68
2023-02-01T07:39:01.968Z,82.56
2023-02-01T07:44:04.493Z,82.46
2023-02-01T07:49:07.171Z,82.69
2023-02-01T07:54:09.362Z,82.56
2023-02-01T07:59:13.021Z,82.53
2023-02-01T08:04:15.307Z,81.95
2023-02-01T08:09:17.654Z,82.31
2023-02-01T08:14:19.935Z,82.45
2023-02-01T08:19:22.193Z,82.42
2023-02-01T08:24:24.428Z,82.38
2023-02-01T08:29:26.687Z,81.87
2023-02-01T08:34:29.024Z,82.56
2023-02-01T08:39:31.266Z,82.01
2023-02-01T08:44:33.544Z,81.86
2023-02-01T08:49:35.724Z,82.20
2023-02-01T08:54:38.117Z,81.79
2023-02-01T08:59:40.343Z,81.79
2023-02-01T09:04:42.901Z,81.98
2023-02-01T09:09:46.035Z,81.44
2023-02-01T09:14:48.352Z,81.74
2023-02-01T09:19:50.563Z,81.68
2023-02-01T09:24:55.269Z,81.45
2023-02-01T09:29:57.536Z,81.10
2023-02-01T09:34:59.755Z,81.27
2023-02-01T09:40:02.108Z,81.05
2023-02-01T09:45:23.723Z,80.68
2023-02-01T09:50:39.384Z,80.48
2023-02-01T09:55:44.888Z,80.14
2023-02-01T10:00:58.992Z,80.21
2023-02-01T10:06:32.248Z,80.12
2023-02-01T10:12:18.787Z,79.71
2023-02-01T10:17:39.706Z,79.98
2023-02-01T10:23:11.401Z,80.21
2023-02-01T10:28:16.804Z,80.07
2023-02-01T10:33:29.178Z,79.77
2023-02-01T10:38:32.289Z,79.64
2023-02-01T10:43:35.221Z,79.34
2023-02-01T10:48:38.099Z,79.61
2023-02-01T10:54:00.035Z,79.22
2023-02-01T10:59:05.075Z,79.30
2023-02-01T11:04:11.755Z,79.23
2023-02-01T11:09:25.099Z,79.14
2023-02-01T11:14:34.015Z,79.23
2023-02-01T11:19:36.570Z,79.05
2023-02-01T11:24:40.375Z,78.75
2023-02-01T11:29:44.984Z,78.88
2023-02-01T11:34:48.595Z,78.63
2023-02-01T11:39:59.370Z,78.56
2023-02-01T11:45:21.801Z,78.12
2023-02-01T11:51:07.959Z,78.46
2023-02-01T11:56:18.439Z,78.21
2023-02-01T12:01:42.828Z,78.37
2023-02-01T12:06:54.451Z,78.21
2023-02-01T12:12:03.704Z,77.92
2023-02-01T12:17:18.056Z,78.08
2023-02-01T12:22:30.783Z,78.06
2023-02-01T12:27:58.227Z,77.72
2023-02-01T12:33:19.266Z,78.03
2023-02-01T12:38:47.016Z,77.93
2023-02-01T12:44:08.065Z,77.97
2023-02-01T12:49:29.825Z,77.83
2023-02-01T12:54:50.918Z,77.82
2023-02-01T13:00:16.627Z,77.64
2023-02-01T13:05:25.426Z,78.26
2023-02-01T13:10:45.166Z,78.04
2023-02-01T13:16:04.430Z,78.11
2023-02-01T13:21:34.124Z,77.97
2023-02-01T13:26:36.409Z,78.35
2023-02-01T13:32:00.172Z,78.35
2023-02-01T13:37:24.112Z,78.18
2023-02-01T13:42:30.050Z,78.34
2023-02-01T13:47:40.390Z,78.31
2023-02-01T13:52:45.442Z,78.32
2023-02-01T13:57:49.512Z,78.36
2023-02-01T14:03:16.975Z,78.22
2023-02-01T14:08:25.924Z,78.25
2023-02-01T14:13:40.869Z,78.43
2023-02-01T14:18:43.167Z,78.17
2023-02-01T14:23:47.419Z,78.32
2023-02-01T14:29:12.711Z,78.19
2023-02-01T14:34:44.476Z,78.04
2023-02-01T14:39:46.597Z,78.09
2023-02-01T14:44:59.304Z,77.88
2023-02-01T14:50:08.506Z,77.86
2023-02-01T14:55:20.629Z,77.71
2023-02-01T15:00:26.808Z,77.71
2023-02-01T15:05:35.531Z,77.51
2023-02-01T15:10:48.163Z,77.43
2023-02-01T15:16:16.128Z,77.17
2023-02-01T15:21:30.320Z,77.36
2023-02-01T15:26:35.296Z,77.33
2023-02-01T15:31:40.332Z,77.17
2023-02-01T15:36:53.521Z,77.18
2023-02-01T15:42:12.012Z,76.71
2023-02-01T15:47:19.395Z,76.84
2023-02-01T15:52:41.935Z,76.61
2023-02-01T15:57:44.860Z,76.80
2023-02-01T16:03:07.895Z,76.19
2023-02-01T16:08:21.359Z,76.62
2023-02-01T16:13:23.771Z,76.77
2023-02-01T16:18:26.059Z,76.79
2023-02-01T16:23:31.577Z,76.61
2023-02-01T16:28:41.388Z,76.73
2023-02-01T16:33:43.757Z,76.60
2023-02-01T16:38:50.756Z,76.55
2023-02-01T16:43:56.672Z,76.44
2023-02-01T16:49:01.419Z,76.29
2023-02-01T16:54:04.013Z,76.57
2023-02-01T16:59:06.924Z,76.41
2023-02-01T17:04:12.421Z,76.26
2023-02-01T17:09:14.910Z,76.08
2023-02-01T17:14:19.519Z,76.26
2023-02-01T17:19:26.516Z,76.26
2023-02-01T17:24:42.675Z,76.30
2023-02-01T17:29:49.451Z,76.25
2023-02-01T17:34:51.772Z,75.94
2023-02-01T17:39:57.467Z,76.23
2023-02-01T17:45:03.085Z,76.10
2023-02-01T17:50:09.753Z,76.13
2023-02-01T17:55:22.906Z,75.85
2023-02-01T18:00:26.334Z,76.00
2023-02-01T18:05:41.943Z,75.82
2023-02-01T18:10:45.124Z,75.95
2023-02-01T18:15:47.873Z,76.02
2023-02-01T18:20:50.453Z,75.48
2023-02-01T18:25:53.467Z,75.80
2023-02-01T18:30:56.071Z,75.88
2023-02-01T18:35:58.948Z,76.10
2023-02-01T18:41:01.699Z,75.82
2023-02-01T18:46:04.176Z,75.84
2023-02-01T18:51:07.100Z,75.95
2023-02-01T18:56:17.341Z,75.83
2023-02-01T19:01:22.004Z,76.25
2023-02-01T19:06:24.404Z,76.63
2023-02-01T19:11:26.784Z,76.91
2023-02-01T19:16:29.383Z,77.25
2023-02-01T19:21:33.216Z,77.11
2023-02-01T19:26:35.705Z,77.34
2023-02-01T19:31:38.047Z,77.48
2023-02-01T19:36:42.770Z,77.90
2023-02-01T19:41:45.124Z,77.90
2023-02-01T19:46:47.669Z,78.08
2023-02-01T19:51:50.079Z,78.25
2023-02-01T19:56:52.573Z,78.27
2023-02-01T20:01:54.265Z,77.99
2023-02-01T20:06:56.736Z,77.94
2023-02-01T20:11:58.992Z,78.07
2023-02-01T20:17:01.367Z,78.07
2023-02-01T20:22:03.711Z,78.89
2023-02-01T20:27:07.721Z,78.56
2023-02-01T20:32:10.180Z,78.74
2023-02-01T20:37:12.607Z,79.14
2023-02-01T20:42:14.946Z,79.26
2023-02-01T20:47:17.244Z,79.17
2023-02-01T20:52:19.631Z,79.43
2023-02-01T20:57:21.962Z,79.37
2023-02-01T21:02:24.944Z,79.65
2023-02-01T21:07:28.579Z,79.62
2023-02-01T21:12:31.009Z,79.63
2023-02-01T21:17:33.842Z,79.80
2023-02-01T21:22:37.877Z,79.97
2023-02-01T21:27:40.269Z,80.27
2023-02-01T21:32:43.107Z,80.04
2023-02-01T21:37:45.434Z,80.33
2023-02-01T21:42:47.701Z,80.00
2023-02-01T21:47:50.094Z,79.93
2023-02-01T21:52:52.406Z,79.96
2023-02-01T21:57:54.741Z,79.95
2023-02-01T22:02:57.158Z,80.19
2023-02-01T22:07:59.432Z,79.83
2023-02-01T22:13:01.677Z,80.29
2023-02-01T22:18:04.060Z,80.11
2023-02-01T22:23:06.447Z,80.26
2023-02-01T22:28:32.696Z,80.42
2023-02-01T22:33:31.205Z,80.52
2023-02-01T22:38:35.571Z,80.43
2023-02-01T22:43:38.031Z,80.06
2023-02-01T22:48:41.811Z,80.20
2023-02-01T22:53:44.088Z,80.53
2023-02-01T22:59:00.558Z,80.72
2023-02-01T23:04:07.637Z,80.68
2023-02-01T23:09:19.053Z,80.62
2023-02-01T23:14:21.717Z,80.63
2023-02-01T23:19:23.897Z,80.47
2023-02-01T23:24:26.351Z,80.65
2023-02-01T23:29:28.728Z,80.11
2023-02-01T23:34:31.107Z,80.23
2023-02-01T23:39:33.611Z,80.16
2023-02-01T23:44:36.862Z,80.26
2023-02-01T23:49:39.307Z,80.07
2023-02-01T23:54:41.613Z,79.86
2023-02-01T23:59:43.981Z,79.93
